createdAt,value
2023-02-27T00:00:24.949Z,60.50
2023-02-27T00:02:52.006Z,57.72
2023-02-27T00:05:19.215Z,62.63
2023-02-27T00:07:46.051Z,56.15
2023-02-27T00:10:13.869Z,54.00
2023-02-27T00:12:40.391Z,51.53
2023-02-27T00:15:11.050Z,43.65
2023-02-27T00:17:38.043Z,51.22
2023-02-27T00:20:11.106Z,60.10
2023-02-27T00:22:38.005Z,32.90
2023-02-27T00:25:05.007Z,29.13
2023-02-27T00:27:32.652Z,49.40
2023-02-27T00:29:59.559Z,37.22
2023-02-27T00:32:26.168Z,60.38
2023-02-27T00:34:52.584Z,50.88
2023-02-27T00:37:19.035Z,37.13
2023-02-27T00:39:45.535Z,33.15
2023-02-27T00:42:12.066Z,45.20
2023-02-27T00:44:38.687Z,30.75
2023-02-27T00:47:06.539Z,46.33
2023-02-27T00:49:32.934Z,44.72
2023-02-27T00:51:59.390Z,33.08
2023-02-27T00:54:25.835Z,39.22
2023-02-27T00:56:52.283Z,45.75
2023-02-27T00:59:18.718Z,41.20
2023-02-27T01:01:45.154Z,34.25
2023-02-27T01:04:11.923Z,38.13
2023-02-27T01:06:38.399Z,27.58
2023-02-27T01:09:04.970Z,35.05
2023-02-27T01:11:31.425Z,36.00
2023-02-27T01:13:59.910Z,35.03
2023-02-27T01:16:26.509Z,43.35
2023-02-27T01:18:53.351Z,40.72
2023-02-27T01:21:19.786Z,37.78
2023-02-27T01:23:46.525Z,37.15
2023-02-27T01:26:13.008Z,48.20
2023-02-27T01:28:39.520Z,32.15
2023-02-27T01:31:06.028Z,31.73
2023-02-27T01:33:32.522Z,23.75
2023-02-27T01:36:00.366Z,38.33
2023-02-27T01:38:26.958Z,59.45
2023-02-27T01:40:53.448Z,41.22
2023-02-27T01:43:21.004Z,37.33
2023-02-27T01:45:49.008Z,35.65
2023-02-27T01:48:16.979Z,29.58
2023-02-27T01:50:46.544Z,41.35
2023-02-27T01:53:13.595Z,39.25
2023-02-27T01:55:40.206Z,22.25
2023-02-27T01:58:07.962Z,31.33
2023-02-27T02:00:35.758Z,33.58
2023-02-27T02:03:08.929Z,34.47
2023-02-27T02:05:35.677Z,21.42
2023-02-27T02:08:02.450Z,24.65
2023-02-27T02:10:29.415Z,40.83
2023-02-27T02:12:56.276Z,39.65
2023-02-27T02:15:25.740Z,23.52
2023-02-27T02:18:05.127Z,43.83
2023-02-27T02:20:50.427Z,23.92
2023-02-27T02:23:35.757Z,50.58
2023-02-27T02:26:20.153Z,24.15
2023-02-27T02:28:47.313Z,16.63
2023-02-27T02:31:20.002Z,35.83
2023-02-27T02:34:05.404Z,43.20
2023-02-27T02:36:44.023Z,28.77
2023-02-27T02:39:23.562Z,25.55
2023-02-27T02:41:58.335Z,30.77
2023-02-27T02:44:30.924Z,44.53
2023-02-27T02:47:03.537Z,34.00
2023-02-27T02:49:50.635Z,33.28
2023-02-27T02:52:17.183Z,25.75
2023-02-27T02:54:47.888Z,43.40
2023-02-27T02:57:17.442Z,28.98
2023-02-27T02:59:55.701Z,31.70
2023-02-27T03:02:25.650Z,31.98
2023-02-27T03:04:58.566Z,27.73
2023-02-27T03:07:34.271Z,39.88
2023-02-27T03:10:08.396Z,40.22
2023-02-27T03:12:36.106Z,29.85
2023-02-27T03:15:13.447Z,40.00
2023-02-27T03:18:06.647Z,26.10
2023-02-27T03:23:04.924Z,26.95
2023-02-27T03:25:33.054Z,20.92
2023-02-27T03:28:01.559Z,39.95
2023-02-27T03:30:28.107Z,49.67
2023-02-27T03:32:56.919Z,27.77
2023-02-27T03:35:27.704Z,31.63
2023-02-27T03:38:07.535Z,49.17
2023-02-27T03:40:36.751Z,40.03
2023-02-27T03:43:08.111Z,47.60
2023-02-27T03:45:45.401Z,27.80
2023-02-27T03:48:13.515Z,28.77
2023-02-27T03:50:39.997Z,30.80
2023-02-27T03:53:09.099Z,32.63
2023-02-27T03:55:37.135Z,27.58
2023-02-27T03:58:03.954Z,26.50
2023-02-27T04:00:30.500Z,33.75
2023-02-27T04:02:58.348Z,33.17
2023-02-27T04:05:27.200Z,35.85
2023-02-27T04:08:16.361Z,31.15
2023-02-27T04:10:45.235Z,27.65
2023-02-27T04:13:14.797Z,25.88
2023-02-27T04:16:00.749Z,89.88
2023-02-27T04:18:46.168Z,34.40
2023-02-27T04:21:27.814Z,51.35
2023-02-27T04:24:03.603Z,29.38
2023-02-27T04:26:30.061Z,35.80
2023-02-27T04:29:11.428Z,30.38
2023-02-27T04:31:42.650Z,41.65
2023-02-27T04:34:09.128Z,39.47
2023-02-27T04:36:44.228Z,38.00
2023-02-27T04:39:23.473Z,64.32
2023-02-27T04:42:01.474Z,43.97
2023-02-27T04:44:29.916Z,46.17
2023-02-27T04:46:57.016Z,51.08
2023-02-27T04:49:28.727Z,48.10
2023-02-27T04:52:04.084Z,28.50
2023-02-27T04:54:50.270Z,33.10
2023-02-27T04:57:22.193Z,24.63
2023-02-27T04:59:51.385Z,38.42
2023-02-27T05:02:24.653Z,44.67
2023-02-27T05:07:19.659Z,33.20
2023-02-27T05:09:55.301Z,29.77
2023-02-27T05:12:24.494Z,32.05
2023-02-27T05:15:00.053Z,39.20
2023-02-27T05:17:29.802Z,26.95
2023-02-27T05:19:56.299Z,43.22
2023-02-27T05:22:34.869Z,33.58
2023-02-27T05:25:15.588Z,46.38
2023-02-27T05:27:44.917Z,33.67
2023-02-27T05:30:30.130Z,40.17
2023-02-27T05:33:03.344Z,31.33
2023-02-27T05:35:32.643Z,24.13
2023-02-27T05:38:07.687Z,22.40
2023-02-27T05:40:36.613Z,17.70
2023-02-27T05:43:06.036Z,25.40
2023-02-27T05:45:34.716Z,19.48
2023-02-27T05:48:13.875Z,24.58
2023-02-27T05:50:40.998Z,20.80
2023-02-27T05:53:15.225Z,29.17
2023-02-27T05:55:43.983Z,43.83
2023-02-27T05:58:10.384Z,35.60
2023-02-27T06:00:39.506Z,25.60
2023-02-27T06:03:06.176Z,42.55
2023-02-27T06:05:33.145Z,26.60
2023-02-27T06:07:59.559Z,27.83
2023-02-27T06:10:26.120Z,57.58
2023-02-27T06:12:52.546Z,23.52
2023-02-27T06:15:19.690Z,18.35
2023-02-27T06:17:46.117Z,39.67
2023-02-27T06:20:12.769Z,32.75
2023-02-27T06:22:39.318Z,16.08
2023-02-27T06:25:06.031Z,29.20
2023-02-27T06:27:32.433Z,14.70
2023-02-27T06:29:58.902Z,24.80
2023-02-27T06:32:25.885Z,55.10
2023-02-27T06:34:53.061Z,23.80
2023-02-27T06:37:19.562Z,22.40
2023-02-27T06:39:46.062Z,53.42
2023-02-27T06:42:12.704Z,16.85
2023-02-27T06:44:39.237Z,20.05
2023-02-27T06:47:05.781Z,26.92
2023-02-27T06:49:32.301Z,15.70
2023-02-27T06:51:58.836Z,19.60
2023-02-27T06:54:25.321Z,34.58
2023-02-27T06:56:52.004Z,23.02
2023-02-27T06:59:18.461Z,43.88
2023-02-27T07:01:44.984Z,19.85
2023-02-27T07:04:15.191Z,36.53
2023-02-27T07:07:32.753Z,31.95
2023-02-27T07:09:28.331Z,19.10
2023-02-27T07:11:54.832Z,108.38
2023-02-27T07:14:21.399Z,62.05
2023-02-27T07:16:50.944Z,43.15
2023-02-27T07:19:18.543Z,28.98
2023-02-27T07:21:45.264Z,20.92
2023-02-27T07:24:11.936Z,27.13
2023-02-27T07:26:38.416Z,29.45
2023-02-27T07:29:05.389Z,15.32
2023-02-27T07:31:31.979Z,17.85
2023-02-27T07:33:58.427Z,22.00
2023-02-27T07:36:25.511Z,28.23
2023-02-27T07:38:51.985Z,35.50
2023-02-27T07:41:29.943Z,45.53
2023-02-27T07:43:59.421Z,38.58
2023-02-27T07:46:27.602Z,47.70
2023-02-27T07:48:54.800Z,84.35
2023-02-27T07:51:21.750Z,71.00
2023-02-27T07:53:48.229Z,57.47
2023-02-27T07:56:14.679Z,41.72
2023-02-27T07:58:41.170Z,29.77
2023-02-27T08:01:07.683Z,21.05
2023-02-27T08:03:34.107Z,15.88
2023-02-27T08:06:02.348Z,33.92
2023-02-27T08:08:29.757Z,39.58
2023-02-27T08:10:56.347Z,22.25
2023-02-27T08:13:42.226Z,33.70
2023-02-27T08:16:09.526Z,45.58
2023-02-27T08:18:36.020Z,28.27
2023-02-27T08:21:06.015Z,17.55
2023-02-27T08:23:34.530Z,24.15
2023-02-27T08:26:01.815Z,35.30
2023-02-27T08:28:28.630Z,25.33
2023-02-27T08:30:55.154Z,34.53
2023-02-27T08:33:22.314Z,31.83
2023-02-27T08:35:48.887Z,42.40
2023-02-27T08:38:15.319Z,43.75
2023-02-27T08:40:41.826Z,38.75
2023-02-27T08:43:08.215Z,33.25
2023-02-27T08:45:34.634Z,26.05
2023-02-27T08:48:01.150Z,28.70
2023-02-27T08:50:27.560Z,40.42
2023-02-27T08:52:54.031Z,39.25
2023-02-27T08:55:21.481Z,24.00
2023-02-27T08:57:47.896Z,27.75
2023-02-27T09:00:14.778Z,25.52
2023-02-27T09:02:41.433Z,30.83
2023-02-27T09:05:08.165Z,20.33
2023-02-27T09:07:34.674Z,17.08
2023-02-27T09:10:01.102Z,22.08
2023-02-27T09:12:27.545Z,48.38
2023-02-27T09:14:53.967Z,21.15
2023-02-27T09:17:20.403Z,38.67
2023-02-27T09:19:46.814Z,42.88
2023-02-27T09:22:13.238Z,40.42
2023-02-27T09:24:39.648Z,21.40
2023-02-27T09:27:06.045Z,37.55
2023-02-27T09:29:32.573Z,18.13
2023-02-27T09:31:59.263Z,27.70
2023-02-27T09:34:25.917Z,45.80
2023-02-27T09:36:52.332Z,35.65
2023-02-27T09:39:18.731Z,31.60
2023-02-27T09:41:59.669Z,49.42
2023-02-27T09:44:46.248Z,45.58
2023-02-27T09:47:15.819Z,50.50
2023-02-27T09:49:49.519Z,32.33
2023-02-27T09:52:16.103Z,46.03
2023-02-27T09:54:44.602Z,22.58
2023-02-27T09:57:15.176Z,32.33
2023-02-27T09:59:44.477Z,41.05
2023-02-27T10:02:10.928Z,20.10
2023-02-27T10:04:49.352Z,20.63
2023-02-27T10:07:34.278Z,21.42
2023-02-27T10:10:06.735Z,30.15
2023-02-27T10:12:50.119Z,25.85
2023-02-27T10:15:22.409Z,44.08
2023-02-27T10:17:51.461Z,35.75
2023-02-27T10:20:24.008Z,48.28
2023-02-27T10:22:51.354Z,46.50
2023-02-27T10:25:30.721Z,18.73
2023-02-27T10:28:00.706Z,39.78
2023-02-27T10:30:32.897Z,34.30
2023-02-27T10:33:13.582Z,26.95
2023-02-27T10:35:43.009Z,21.45
2023-02-27T10:38:18.343Z,19.67
2023-02-27T10:40:45.475Z,35.72
2023-02-27T10:43:14.341Z,18.20
2023-02-27T10:45:42.271Z,24.20
2023-02-27T10:48:08.725Z,25.52
2023-02-27T10:50:36.877Z,24.52
2023-02-27T10:53:04.995Z,25.60
2023-02-27T10:55:32.917Z,34.47
2023-02-27T10:58:01.084Z,19.77
2023-02-27T11:00:35.178Z,23.70
2023-02-27T11:03:01.781Z,20.73
2023-02-27T11:05:29.685Z,43.45
2023-02-27T11:07:57.176Z,32.83
2023-02-27T11:10:25.299Z,24.52
2023-02-27T11:12:57.744Z,28.83
2023-02-27T11:15:25.916Z,44.43
2023-02-27T11:17:53.840Z,20.73
2023-02-27T11:20:40.635Z,47.80
2023-02-27T11:23:13.170Z,20.88
2023-02-27T11:25:39.826Z,20.88
2023-02-27T11:28:23.553Z,27.02
2023-02-27T11:33:20.699Z,31.38
2023-02-27T11:35:58.236Z,30.85
2023-02-27T11:38:26.524Z,66.70
2023-02-27T11:41:04.140Z,32.28
2023-02-27T11:43:34.814Z,25.95
2023-02-27T11:46:18.830Z,28.75
2023-02-27T11:48:57.463Z,23.50
2023-02-27T11:51:26.655Z,26.90
2023-02-27T11:53:53.155Z,30.90
2023-02-27T11:56:42.737Z,57.90
2023-02-27T11:59:15.643Z,34.60
2023-02-27T12:01:45.124Z,39.60
2023-02-27T12:04:23.481Z,25.85
2023-02-27T12:06:56.214Z,43.03
2023-02-27T12:09:35.651Z,21.60
2023-02-27T12:12:06.105Z,27.35
2023-02-27T12:14:43.310Z,35.15
2023-02-27T12:17:14.438Z,24.38
2023-02-27T12:19:48.243Z,22.75
2023-02-27T12:22:22.821Z,27.85
2023-02-27T12:24:53.475Z,38.65
2023-02-27T12:27:19.947Z,31.70
2023-02-27T12:30:04.808Z,38.40
2023-02-27T12:32:38.042Z,45.63
2023-02-27T12:35:19.633Z,21.02
2023-02-27T12:37:46.203Z,28.70
2023-02-27T12:40:17.370Z,38.40
2023-02-27T12:42:43.920Z,36.28
2023-02-27T12:45:29.130Z,22.38
2023-02-27T12:47:55.671Z,46.15
2023-02-27T12:50:23.089Z,39.83
2023-02-27T12:53:04.409Z,24.00
2023-02-27T12:55:31.752Z,20.58
2023-02-27T12:58:07.371Z,20.58
2023-02-27T13:00:46.427Z,37.30
2023-02-27T13:03:16.316Z,23.92
2023-02-27T13:05:45.733Z,33.08
2023-02-27T13:08:41.241Z,33.53
2023-02-27T13:11:26.603Z,36.38
2023-02-27T13:13:56.712Z,22.33
2023-02-27T13:16:29.368Z,45.78
2023-02-27T13:18:55.894Z,23.05
2023-02-27T13:21:26.282Z,54.47
2023-02-27T13:24:01.417Z,31.92
2023-02-27T13:26:34.349Z,32.10
2023-02-27T13:29:01.299Z,53.97
2023-02-27T13:31:31.177Z,48.58
2023-02-27T13:34:04.143Z,31.85
2023-02-27T13:36:44.934Z,38.63
2023-02-27T13:39:29.967Z,20.27
2023-02-27T13:41:56.641Z,41.50
2023-02-27T13:44:23.050Z,48.63
2023-02-27T13:46:49.630Z,57.95
2023-02-27T13:49:28.858Z,50.90
2023-02-27T13:51:58.674Z,50.65
2023-02-27T13:54:26.726Z,35.95
2023-02-27T13:56:59.092Z,34.00
2023-02-27T13:59:39.651Z,51.63
2023-02-27T14:02:25.022Z,18.23
2023-02-27T14:04:52.760Z,40.08
2023-02-27T14:07:28.098Z,61.42
2023-02-27T14:10:11.121Z,91.65
2023-02-27T14:12:45.473Z,37.22
2023-02-27T14:15:18.526Z,33.83
2023-02-27T14:17:46.395Z,28.08
2023-02-27T14:20:27.817Z,21.60
2023-02-27T14:23:12.877Z,24.25
2023-02-27T14:25:40.874Z,32.10
2023-02-27T14:28:16.643Z,18.92
2023-02-27T14:30:45.625Z,33.53
2023-02-27T14:33:15.855Z,103.22
2023-02-27T14:35:44.911Z,36.63
2023-02-27T14:38:11.984Z,32.58
2023-02-27T14:40:51.690Z,31.67
2023-02-27T14:43:25.930Z,24.73
2023-02-27T14:45:53.214Z,37.45
2023-02-27T14:48:25.184Z,31.50
2023-02-27T14:50:53.743Z,39.45
2023-02-27T14:53:27.188Z,71.22
2023-02-27T14:55:55.673Z,47.30
2023-02-27T14:58:23.040Z,42.22
2023-02-27T15:00:55.489Z,34.60
2023-02-27T15:03:26.334Z,26.95
2023-02-27T15:05:53.857Z,33.35
2023-02-27T15:08:28.048Z,43.15
2023-02-27T15:10:55.724Z,34.58
2023-02-27T15:13:24.898Z,18.13
2023-02-27T15:15:53.633Z,23.67
2023-02-27T15:18:22.747Z,46.03
2023-02-27T15:20:56.259Z,30.30
2023-02-27T15:25:49.134Z,43.88
2023-02-27T15:28:30.778Z,30.50
2023-02-27T15:30:57.536Z,53.63
2023-02-27T15:33:26.914Z,56.47
2023-02-27T15:35:53.388Z,27.05
2023-02-27T15:38:24.054Z,47.88
2023-02-27T15:40:50.661Z,24.02
2023-02-27T15:43:17.315Z,32.35
2023-02-27T15:45:43.977Z,42.30
2023-02-27T15:48:14.824Z,23.40
2023-02-27T15:50:42.610Z,21.30
2023-02-27T15:53:26.070Z,36.42
2023-02-27T15:55:53.911Z,96.60
2023-02-27T15:58:29.003Z,51.30
2023-02-27T16:01:00.719Z,63.60
2023-02-27T16:03:30.957Z,104.10
2023-02-27T16:05:57.800Z,63.25
2023-02-27T16:08:24.499Z,69.68
2023-02-27T16:10:51.653Z,60.88
2023-02-27T16:13:33.454Z,48.85
2023-02-27T16:16:01.225Z,43.80
2023-02-27T16:18:32.212Z,41.25
2023-02-27T16:21:08.714Z,74.82
2023-02-27T16:23:35.268Z,62.13
2023-02-27T16:26:23.016Z,53.60
2023-02-27T16:29:04.628Z,61.33
2023-02-27T16:31:35.945Z,40.70
2023-02-27T16:34:13.229Z,48.92
2023-02-27T16:36:50.940Z,35.78
2023-02-27T16:39:17.353Z,68.00
2023-02-27T16:41:43.754Z,58.63
2023-02-27T16:44:10.153Z,44.55
2023-02-27T16:46:36.552Z,46.50
2023-02-27T16:49:17.912Z,39.10
2023-02-27T16:51:46.495Z,56.65
2023-02-27T16:54:13.800Z,51.95
2023-02-27T16:56:40.661Z,96.70
2023-02-27T16:59:07.457Z,94.20
2023-02-27T17:01:34.448Z,102.45
2023-02-27T17:04:01.139Z,52.70
2023-02-27T17:06:28.021Z,82.30
2023-02-27T17:08:56.041Z,60.97
2023-02-27T17:11:22.545Z,63.83
2023-02-27T17:13:49.085Z,48.95
2023-02-27T17:16:15.804Z,73.57
2023-02-27T17:18:42.281Z,60.50
2023-02-27T17:21:08.700Z,44.65
2023-02-27T17:23:35.362Z,97.60
2023-02-27T17:26:01.798Z,66.15
2023-02-27T17:28:28.372Z,77.82
2023-02-27T17:30:54.865Z,59.88
2023-02-27T17:33:21.412Z,47.80
2023-02-27T17:35:47.884Z,35.15
2023-02-27T17:38:14.599Z,73.63
2023-02-27T17:40:41.024Z,55.00
2023-02-27T17:43:07.498Z,39.80
2023-02-27T17:45:33.951Z,64.55
2023-02-27T17:48:00.423Z,52.63
2023-02-27T17:50:26.834Z,53.22
2023-02-27T17:52:53.308Z,59.90
2023-02-27T17:55:19.800Z,62.08
2023-02-27T17:57:46.270Z,78.70
2023-02-27T18:00:17.700Z,75.13
2023-02-27T18:02:45.018Z,54.97
2023-02-27T18:05:11.753Z,49.88
2023-02-27T18:07:38.269Z,68.30
2023-02-27T18:10:05.801Z,54.53
2023-02-27T18:12:32.443Z,67.38
2023-02-27T18:14:58.969Z,66.75
2023-02-27T18:17:25.452Z,61.47
2023-02-27T18:19:51.856Z,60.45
2023-02-27T18:22:18.809Z,53.90
2023-02-27T18:24:45.295Z,34.97
2023-02-27T18:27:11.903Z,54.42
2023-02-27T18:29:38.585Z,59.22
2023-02-27T18:32:07.325Z,33.67
2023-02-27T18:34:33.849Z,50.17
2023-02-27T18:37:00.332Z,95.43
2023-02-27T18:39:26.811Z,67.68
2023-02-27T18:41:53.356Z,76.20
2023-02-27T18:44:19.775Z,79.97
2023-02-27T18:46:46.270Z,70.88
2023-02-27T18:49:12.765Z,69.05
2023-02-27T18:51:39.294Z,64.60
2023-02-27T18:54:06.939Z,72.22
2023-02-27T18:56:33.439Z,81.40
2023-02-27T18:59:04.975Z,79.60
2023-02-27T19:01:32.891Z,63.42
2023-02-27T19:04:03.549Z,74.63
2023-02-27T19:06:34.447Z,91.30
2023-02-27T19:09:00.921Z,84.30
2023-02-27T19:11:29.595Z,86.63
2023-02-27T19:13:56.867Z,94.53
2023-02-27T19:16:23.425Z,63.80
2023-02-27T19:18:49.852Z,62.38
2023-02-27T19:21:16.314Z,93.13
2023-02-27T19:23:43.341Z,75.45
2023-02-27T19:26:09.805Z,79.53
2023-02-27T19:28:36.461Z,88.95
2023-02-27T19:31:06.967Z,72.93
2023-02-27T19:33:33.515Z,74.85
2023-02-27T19:36:00.937Z,97.03
2023-02-27T19:38:27.393Z,77.63
2023-02-27T19:40:53.945Z,76.60
2023-02-27T19:43:20.419Z,75.22
2023-02-27T19:45:46.850Z,83.97
2023-02-27T19:48:15.292Z,272.75
2023-02-27T19:50:41.697Z,102.57
2023-02-27T19:53:08.235Z,128.95
2023-02-27T19:55:34.645Z,87.35
2023-02-27T19:58:01.511Z,92.50
2023-02-27T20:00:28.072Z,99.15
2023-02-27T20:02:54.501Z,106.00
2023-02-27T20:05:21.116Z,111.28
2023-02-27T20:07:48.388Z,88.25
2023-02-27T20:10:15.693Z,82.28
2023-02-27T20:12:42.447Z,82.03
2023-02-27T20:15:11.566Z,104.22
2023-02-27T20:17:38.940Z,106.88
2023-02-27T20:20:05.726Z,107.20
2023-02-27T20:22:33.504Z,96.53
2023-02-27T20:25:00.107Z,106.07
2023-02-27T20:27:26.924Z,98.07
2023-02-27T20:29:56.235Z,102.45
2023-02-27T20:32:24.144Z,115.63
2023-02-27T20:34:50.902Z,137.20
2023-02-27T20:37:17.396Z,145.13
2023-02-27T20:39:45.159Z,159.60
2023-02-27T20:42:12.128Z,181.02
2023-02-27T20:44:38.619Z,198.85
2023-02-27T20:47:05.026Z,149.55
2023-02-27T20:49:31.427Z,171.60
2023-02-27T20:51:58.649Z,142.80
2023-02-27T20:54:25.234Z,127.15
2023-02-27T20:56:52.311Z,160.27
2023-02-27T20:59:20.676Z,116.20
2023-02-27T21:01:51.395Z,131.35
2023-02-27T21:04:22.303Z,169.20
2023-02-27T21:06:49.180Z,157.48
2023-02-27T21:09:15.637Z,136.48
2023-02-27T21:11:42.128Z,154.93
2023-02-27T21:14:09.515Z,139.50
2023-02-27T21:16:36.898Z,130.75
2023-02-27T21:19:03.815Z,187.57
2023-02-27T21:21:32.008Z,164.65
2023-02-27T21:23:59.193Z,162.43
2023-02-27T21:26:35.107Z,181.43
2023-02-27T21:29:06.884Z,165.10
2023-02-27T21:31:34.153Z,175.95
2023-02-27T21:34:01.569Z,176.88
2023-02-27T21:36:29.309Z,181.23
2023-02-27T21:38:56.794Z,121.28
2023-02-27T21:41:23.324Z,151.45
2023-02-27T21:43:49.787Z,134.60
2023-02-27T21:46:16.306Z,127.30
2023-02-27T21:48:43.669Z,134.98
2023-02-27T21:51:10.292Z,113.47
2023-02-27T21:53:36.999Z,114.50
2023-02-27T21:56:08.170Z,90.15
2023-02-27T21:58:34.655Z,80.53
2023-02-27T22:01:01.268Z,65.38
2023-02-27T22:03:34.899Z,73.85
2023-02-27T22:06:02.050Z,83.53
2023-02-27T22:08:28.736Z,125.65
2023-02-27T22:10:56.102Z,105.95
2023-02-27T22:13:22.519Z,104.53
2023-02-27T22:15:49.112Z,123.45
2023-02-27T22:18:15.649Z,89.85
2023-02-27T22:20:42.329Z,145.77
2023-02-27T22:23:08.833Z,116.78
2023-02-27T22:25:35.963Z,87.40
2023-02-27T22:28:03.580Z,93.85
2023-02-27T22:30:30.365Z,105.28
2023-02-27T22:32:56.771Z,98.55
2023-02-27T22:35:23.466Z,97.75
2023-02-27T22:37:50.049Z,94.90
2023-02-27T22:40:17.939Z,80.68
2023-02-27T22:42:45.111Z,75.22
2023-02-27T22:45:11.815Z,82.72
2023-02-27T22:47:38.242Z,125.97
2023-02-27T22:50:04.872Z,93.47
2023-02-27T22:52:31.397Z,133.85
2023-02-27T22:54:57.791Z,124.18
2023-02-27T22:57:24.264Z,126.15
2023-02-27T22:59:50.765Z,132.40
2023-02-27T23:02:17.358Z,164.80
2023-02-27T23:04:43.923Z,139.15
2023-02-27T23:07:10.423Z,121.03
2023-02-27T23:09:36.847Z,129.82
2023-02-27T23:12:04.443Z,129.38
2023-02-27T23:14:31.046Z,143.77
2023-02-27T23:16:57.451Z,132.43
2023-02-27T23:19:24.009Z,129.75
2023-02-27T23:21:50.512Z,143.30
2023-02-27T23:24:17.880Z,154.93
2023-02-27T23:26:45.397Z,133.05
2023-02-27T23:29:12.258Z,131.05
2023-02-27T23:31:39.077Z,136.52
2023-02-27T23:34:06.217Z,137.38
2023-02-27T23:36:33.741Z,119.47
2023-02-27T23:39:00.190Z,143.05
2023-02-27T23:41:27.772Z,141.38
2023-02-27T23:44:13.262Z,135.15
2023-02-27T23:46:40.601Z,124.47
2023-02-27T23:49:07.042Z,139.68
2023-02-27T23:51:33.924Z,135.73
2023-02-27T23:54:00.489Z,127.55
2023-02-27T23:56:28.512Z,140.48
2023-02-27T23:58:56.512Z,163.35
